createdAt,value
2023-01-10T00:01:39.321Z,101467.33
2023-01-10T00:04:06.575Z,101466.23
2023-01-10T00:06:38.738Z,101474.66
2023-01-10T00:09:05.693Z,101483.63
2023-01-10T00:11:51.673Z,101492.84
2023-01-10T00:14:19.341Z,101499.28
2023-01-10T00:16:46.589Z,101496.98
2023-01-10T00:19:13.766Z,101491.13
2023-01-10T00:21:42.730Z,101491.28
2023-01-10T00:24:18.485Z,101486.35
2023-01-10T00:26:53.621Z,101486.06
2023-01-10T00:29:25.508Z,101486.84
2023-01-10T00:31:52.527Z,101483.80
2023-01-10T00:34:21.619Z,101482.95
2023-01-10T00:36:48.775Z,101483.14
2023-01-10T00:39:20.325Z,101477.65
2023-01-10T00:42:06.315Z,101476.45
2023-01-10T00:44:33.254Z,101472.55
2023-01-10T00:47:02.049Z,101476.69
2023-01-10T00:49:29.198Z,101477.34
2023-01-10T00:51:57.995Z,101484.59
2023-01-10T00:54:25.457Z,101491.98
2023-01-10T00:56:57.533Z,101493.77
2023-01-10T00:59:24.759Z,101498.15
2023-01-10T01:01:52.158Z,101493.84
2023-01-10T01:04:19.262Z,101489.89
2023-01-10T01:06:50.303Z,101481.16
2023-01-10T01:09:17.269Z,101482.48
2023-01-10T01:11:46.664Z,101487.70
2023-01-10T01:14:13.698Z,101498.36
2023-01-10T01:16:40.548Z,101495.83
2023-01-10T01:19:12.912Z,101497.90
2023-01-10T01:21:40.184Z,101491.41
2023-01-10T01:24:11.043Z,101489.50
2023-01-10T01:26:42.452Z,101489.89
2023-01-10T01:29:09.705Z,101497.26
2023-01-10T01:31:41.971Z,101502.09
2023-01-10T01:34:09.223Z,101510.00
2023-01-10T01:36:36.915Z,101512.72
2023-01-10T01:39:05.777Z,101505.25
2023-01-10T01:41:51.462Z,101506.88
2023-01-10T01:44:26.087Z,101499.45
2023-01-10T01:47:03.986Z,101502.88
2023-01-10T01:49:31.442Z,101508.70
2023-01-10T01:52:07.301Z,101502.16
2023-01-10T01:54:36.295Z,101508.11
2023-01-10T01:57:06.410Z,101503.11
2023-01-10T01:59:35.968Z,101499.07
2023-01-10T02:02:35.658Z,101493.80
2023-01-10T02:05:04.824Z,101497.64
2023-01-10T02:07:37.095Z,101507.07
2023-01-10T02:10:15.552Z,101508.66
2023-01-10T02:12:43.474Z,101498.14
2023-01-10T02:15:16.055Z,101490.73
2023-01-10T02:17:43.408Z,101496.77
2023-01-10T02:20:11.892Z,101488.67
2023-01-10T02:22:54.297Z,101485.38
2023-01-10T02:25:35.890Z,101480.90
2023-01-10T02:28:27.710Z,101476.77
2023-01-10T02:31:20.021Z,101467.64
2023-01-10T02:34:03.075Z,101463.77
2023-01-10T02:36:34.831Z,101455.15
2023-01-10T02:39:22.412Z,101451.80
2023-01-10T02:42:09.374Z,101451.25
2023-01-10T02:44:58.339Z,101452.67
2023-01-10T02:47:25.586Z,101461.02
2023-01-10T02:49:52.652Z,101462.92
2023-01-10T02:52:30.125Z,101456.28
2023-01-10T02:54:59.222Z,101451.85
2023-01-10T02:57:33.235Z,101455.39
2023-01-10T03:00:25.577Z,101457.47
2023-01-10T03:02:57.743Z,101462.63
2023-01-10T03:05:30.630Z,101458.38
2023-01-10T03:08:34.239Z,101461.92
2023-01-10T03:11:03.734Z,101452.19
2023-01-10T03:13:30.886Z,101451.08
2023-01-10T03:15:58.382Z,101443.51
2023-01-10T03:18:40.135Z,101439.23
2023-01-10T03:21:07.180Z,101433.58
2023-01-10T03:23:35.597Z,101434.10
2023-01-10T03:26:02.817Z,101428.56
2023-01-10T03:28:49.523Z,101425.98
2023-01-10T03:31:30.627Z,101422.39
2023-01-10T03:33:57.949Z,101424.33
2023-01-10T03:36:46.922Z,101432.30
2023-01-10T03:39:41.524Z,101433.38
2023-01-10T03:42:19.722Z,101433.15
2023-01-10T03:45:10.933Z,101433.59
2023-01-10T03:47:46.284Z,101435.95
2023-01-10T03:50:22.018Z,101441.56
2023-01-10T03:52:49.271Z,101451.20
2023-01-10T03:55:21.539Z,101446.61
2023-01-10T03:57:53.807Z,101445.36
2023-01-10T04:00:21.631Z,101449.75
2023-01-10T04:02:48.632Z,101453.03
2023-01-10T04:05:15.775Z,101443.86
2023-01-10T04:07:43.052Z,101444.84
2023-01-10T04:10:12.121Z,101444.97
2023-01-10T04:12:39.065Z,101449.39
2023-01-10T04:15:06.832Z,101454.34
2023-01-10T04:17:34.794Z,101448.95
2023-01-10T04:20:07.272Z,101455.64
2023-01-10T04:22:36.473Z,101449.52
2023-01-10T04:25:06.280Z,101454.11
2023-01-10T04:27:38.774Z,101454.44
2023-01-10T04:30:06.933Z,101453.77
2023-01-10T04:32:34.180Z,101445.01
2023-01-10T04:35:02.250Z,101439.00
2023-01-10T04:37:29.622Z,101435.64
2023-01-10T04:39:56.653Z,101436.08
2023-01-10T04:42:24.008Z,101442.61
2023-01-10T04:44:51.271Z,101450.37
2023-01-10T04:47:19.433Z,101455.23
2023-01-10T04:49:48.527Z,101455.26
2023-01-10T04:52:16.086Z,101463.95
2023-01-10T04:54:43.440Z,101465.54
2023-01-10T04:57:16.534Z,101470.64
2023-01-10T04:59:43.474Z,101474.10
2023-01-10T05:02:10.598Z,101472.27
2023-01-10T05:04:43.211Z,101476.90
2023-01-10T05:07:10.457Z,101481.14
2023-01-10T05:09:37.612Z,101479.33
2023-01-10T05:12:10.701Z,101481.93
2023-01-10T05:14:37.639Z,101476.86
2023-01-10T05:17:04.994Z,101476.15
2023-01-10T05:19:31.993Z,101474.76
2023-01-10T05:21:59.293Z,101473.98
2023-01-10T05:24:26.545Z,101473.66
2023-01-10T05:26:53.897Z,101480.66
2023-01-10T05:29:20.841Z,101489.38
2023-01-10T05:31:51.001Z,101496.64
2023-01-10T05:34:18.622Z,101491.96
2023-01-10T05:36:49.579Z,101489.07
2023-01-10T05:39:17.229Z,101490.84
2023-01-10T05:41:44.282Z,101503.19
2023-01-10T05:44:14.933Z,101508.40
2023-01-10T05:46:41.917Z,101511.15
2023-01-10T05:49:09.198Z,101510.61
2023-01-10T05:51:36.244Z,101518.48
2023-01-10T05:54:03.399Z,101519.04
2023-01-10T05:56:30.649Z,101517.85
2023-01-10T05:59:13.998Z,101515.02
2023-01-10T06:01:50.077Z,101521.57
2023-01-10T06:04:17.287Z,101523.68
2023-01-10T06:06:44.448Z,101522.76
2023-01-10T06:09:12.820Z,101519.32
2023-01-10T06:11:39.969Z,101525.65
2023-01-10T06:14:07.527Z,101535.75
2023-01-10T06:16:41.144Z,101529.27
2023-01-10T06:19:09.037Z,101529.52
2023-01-10T06:21:36.428Z,101538.64
2023-01-10T06:24:03.342Z,101542.52
2023-01-10T06:26:30.647Z,101543.11
2023-01-10T06:28:59.331Z,101545.70
2023-01-10T06:31:27.038Z,101546.39
2023-01-10T06:33:57.422Z,101553.07
2023-01-10T06:36:24.721Z,101550.17
2023-01-10T06:38:51.676Z,101550.54
2023-01-10T06:41:18.852Z,101540.56
2023-01-10T06:43:46.222Z,101546.18
2023-01-10T06:46:16.180Z,101554.46
2023-01-10T06:48:45.032Z,101553.10
2023-01-10T06:51:12.996Z,101543.50
2023-01-10T06:53:40.791Z,101545.62
2023-01-10T06:56:09.341Z,101551.24
2023-01-10T06:58:40.478Z,101545.06
2023-01-10T07:01:12.649Z,101553.58
2023-01-10T07:03:40.340Z,101552.21
2023-01-10T07:06:11.056Z,101556.70
2023-01-10T07:08:40.145Z,101556.73
2023-01-10T07:11:07.940Z,101558.33
2023-01-10T07:13:35.787Z,101562.20
2023-01-10T07:16:04.529Z,101562.31
2023-01-10T07:18:33.335Z,101566.58
2023-01-10T07:21:00.109Z,101570.05
2023-01-10T07:23:27.141Z,101568.09
2023-01-10T07:25:54.190Z,101558.86
2023-01-10T07:28:23.489Z,101556.17
2023-01-10T07:30:50.835Z,101553.08
2023-01-10T07:33:17.668Z,101556.23
2023-01-10T07:35:44.877Z,101551.81
2023-01-10T07:38:12.159Z,101556.09
2023-01-10T07:40:39.336Z,101547.83
2023-01-10T07:43:06.392Z,101550.08
2023-01-10T07:45:34.279Z,101547.36
2023-01-10T07:48:02.697Z,101552.23
2023-01-10T07:50:31.570Z,101560.26
2023-01-10T07:52:59.118Z,101563.48
2023-01-10T07:55:27.053Z,101564.92
2023-01-10T07:57:55.766Z,101564.63
2023-01-10T08:00:23.321Z,101564.13
2023-01-10T08:02:53.390Z,101569.37
2023-01-10T08:05:21.485Z,101573.90
2023-01-10T08:07:49.408Z,101579.75
2023-01-10T08:10:16.377Z,101580.36
2023-01-10T08:12:44.113Z,101576.99
2023-01-10T08:15:11.636Z,101576.33
2023-01-10T08:17:38.676Z,101576.01
2023-01-10T08:20:11.393Z,101585.17
2023-01-10T08:22:38.567Z,101582.13
2023-01-10T08:25:05.695Z,101577.48
2023-01-10T08:27:32.852Z,101576.77
2023-01-10T08:29:59.728Z,101577.83
2023-01-10T08:32:26.714Z,101579.34
2023-01-10T08:34:55.791Z,101588.46
2023-01-10T08:37:22.853Z,101579.88
2023-01-10T08:39:49.676Z,101571.36
2023-01-10T08:42:18.452Z,101582.91
2023-01-10T08:44:45.322Z,101579.08
2023-01-10T08:47:12.246Z,101573.96
2023-01-10T08:49:39.515Z,101576.10
2023-01-10T08:52:06.756Z,101573.79
2023-01-10T08:54:33.838Z,101581.23
2023-01-10T08:57:01.676Z,101571.28
2023-01-10T08:59:29.024Z,101576.66
2023-01-10T09:01:58.046Z,101575.88
2023-01-10T09:04:28.027Z,101571.00
2023-01-10T09:06:55.248Z,101567.51
2023-01-10T09:09:22.394Z,101564.98
2023-01-10T09:11:51.879Z,101561.49
2023-01-10T09:14:18.876Z,101561.95
2023-01-10T09:24:59.423Z,101544.28
2023-01-10T09:27:26.542Z,101538.29
2023-01-10T09:29:53.592Z,101541.52
2023-01-10T09:32:20.998Z,101540.04
2023-01-10T09:34:48.204Z,101539.33
2023-01-10T09:37:15.870Z,101541.00
2023-01-10T09:39:43.419Z,101534.86
2023-01-10T09:42:10.874Z,101535.41
2023-01-10T09:45:03.019Z,101530.88
2023-01-10T09:47:53.960Z,101531.43
2023-01-10T09:50:39.604Z,101532.49
2023-01-10T09:53:13.794Z,101523.03
2023-01-10T09:55:40.703Z,101518.80
2023-01-10T09:58:13.235Z,101511.27
2023-01-10T10:00:54.442Z,101507.75
2023-01-10T10:03:27.844Z,101511.64
2023-01-10T10:06:03.623Z,101502.75
2023-01-10T10:08:34.912Z,101503.52
2023-01-10T10:11:26.329Z,101502.27
2023-01-10T10:22:12.825Z,101485.20
2023-01-10T10:25:17.360Z,101497.16
2023-01-10T10:28:31.397Z,101485.29
2023-01-10T10:31:34.560Z,101482.77
2023-01-10T10:34:22.754Z,101481.94
2023-01-10T10:36:58.823Z,101487.36
2023-01-10T10:39:35.928Z,101483.65
2023-01-10T10:42:03.727Z,101474.14
2023-01-10T10:44:40.172Z,101477.17
2023-01-10T10:47:19.885Z,101489.30
2023-01-10T10:49:55.065Z,101498.41
2023-01-10T10:52:34.303Z,101496.04
2023-01-10T10:55:01.332Z,101494.84
2023-01-10T10:57:29.879Z,101488.59
2023-01-10T10:59:57.594Z,101490.11
2023-01-10T11:02:28.800Z,101491.34
2023-01-10T11:04:59.400Z,101490.41
2023-01-10T11:07:29.279Z,101497.32
2023-01-10T11:10:08.165Z,101495.63
2023-01-10T11:12:36.472Z,101499.27
2023-01-10T11:15:03.931Z,101504.66
2023-01-10T11:17:31.691Z,101508.10
2023-01-10T11:20:01.094Z,101510.06
2023-01-10T11:22:39.382Z,101506.02
2023-01-10T11:25:18.737Z,101509.27
2023-01-10T11:27:50.803Z,101511.56
2023-01-10T11:30:28.928Z,101508.08
2023-01-10T11:32:57.111Z,101506.00
2023-01-10T11:35:32.834Z,101502.98
2023-01-10T11:38:15.552Z,101501.92
2023-01-10T11:40:59.796Z,101503.92
2023-01-10T11:43:31.779Z,101501.22
2023-01-10T11:46:06.415Z,101502.01
2023-01-10T11:49:08.845Z,101508.69
2023-01-10T11:51:37.251Z,101506.10
2023-01-10T11:54:13.793Z,101518.30
2023-01-10T11:56:42.788Z,101520.94
2023-01-10T11:59:12.131Z,101520.48
2023-01-10T12:01:41.413Z,101525.06
2023-01-10T12:04:15.984Z,101522.63
2023-01-10T12:07:09.398Z,101521.62
2023-01-10T12:09:43.328Z,101528.08
2023-01-10T12:12:21.131Z,101535.40
2023-01-10T12:14:50.353Z,101532.14
2023-01-10T12:17:34.760Z,101531.11
2023-01-10T12:20:02.621Z,101535.20
2023-01-10T12:22:35.315Z,101532.85
2023-01-10T12:25:05.807Z,101530.91
2023-01-10T12:27:32.777Z,101535.43
2023-01-10T12:30:12.572Z,101541.17
2023-01-10T12:32:45.984Z,101543.63
2023-01-10T12:35:24.661Z,101541.84
2023-01-10T12:37:55.775Z,101548.13
2023-01-10T12:40:35.429Z,101545.13
2023-01-10T12:43:24.723Z,101552.73
2023-01-10T12:45:53.747Z,101556.74
2023-01-10T12:48:30.363Z,101559.63
2023-01-10T12:51:01.231Z,101562.98
2023-01-10T12:53:43.913Z,101559.92
2023-01-10T12:56:14.441Z,101563.44
2023-01-10T12:58:47.423Z,101561.45
2023-01-10T13:01:16.781Z,101560.55
2023-01-10T13:03:44.804Z,101564.78
2023-01-10T13:06:31.651Z,101564.08
2023-01-10T13:08:59.804Z,101560.00
2023-01-10T13:11:29.697Z,101564.22
2023-01-10T13:14:01.270Z,101565.02
2023-01-10T13:16:50.624Z,101564.13
2023-01-10T13:19:21.047Z,101565.83
2023-01-10T13:21:48.100Z,101571.05
2023-01-10T13:24:15.343Z,101576.17
2023-01-10T13:26:52.554Z,101578.16
2023-01-10T13:29:21.945Z,101577.63
2023-01-10T13:31:50.580Z,101577.26
2023-01-10T13:34:17.902Z,101577.33
2023-01-10T13:36:56.606Z,101578.98
2023-01-10T13:39:40.669Z,101587.17
2023-01-10T13:42:26.628Z,101591.80
2023-01-10T13:45:09.859Z,101598.28
2023-01-10T13:47:41.027Z,101596.21
2023-01-10T13:50:35.667Z,101600.41
2023-01-10T13:53:12.177Z,101601.33
2023-01-10T13:55:38.973Z,101607.48
2023-01-10T13:58:09.023Z,101603.42
2023-01-10T14:00:59.153Z,101602.08
2023-01-10T14:03:50.281Z,101599.21
2023-01-10T14:06:30.968Z,101608.37
2023-01-10T14:09:01.030Z,101605.67
2023-01-10T14:11:43.520Z,101607.66
2023-01-10T14:14:22.814Z,101617.44
2023-01-10T14:17:17.336Z,101625.17
2023-01-10T14:19:45.427Z,101629.67
2023-01-10T14:22:35.716Z,101630.70
2023-01-10T14:25:17.301Z,101635.89
2023-01-10T14:27:50.369Z,101644.21
2023-01-10T14:30:20.648Z,101651.04
2023-01-10T14:32:52.364Z,101646.69
2023-01-10T14:35:21.667Z,101639.79
2023-01-10T14:37:52.841Z,101645.73
2023-01-10T14:40:34.190Z,101651.85
2023-01-10T14:43:03.595Z,101657.48
2023-01-10T14:45:51.578Z,101655.57
2023-01-10T14:48:29.330Z,101657.16
2023-01-10T14:51:20.564Z,101663.99
2023-01-10T14:54:01.583Z,101663.81
2023-01-10T14:56:35.812Z,101665.69
2023-01-10T14:59:33.807Z,101670.66
2023-01-10T15:02:02.242Z,101670.92
2023-01-10T15:04:32.390Z,101674.79
2023-01-10T15:07:10.105Z,101678.07
2023-01-10T15:09:37.500Z,101677.90
2023-01-10T15:12:07.701Z,101680.30
2023-01-10T15:14:35.810Z,101674.98
2023-01-10T15:17:05.115Z,101671.90
2023-01-10T15:19:34.853Z,101675.83
2023-01-10T15:22:03.611Z,101679.54
2023-01-10T15:24:37.066Z,101685.58
2023-01-10T15:27:13.411Z,101683.40
2023-01-10T15:29:44.507Z,101689.55
2023-01-10T15:32:18.976Z,101682.11
2023-01-10T15:34:48.894Z,101681.13
2023-01-10T15:37:20.237Z,101680.67
2023-01-10T15:39:48.004Z,101684.48
2023-01-10T15:42:15.164Z,101675.45
2023-01-10T15:44:44.662Z,101674.71
2023-01-10T15:47:37.504Z,101681.52
2023-01-10T15:50:26.674Z,101691.09
2023-01-10T15:52:57.678Z,101687.09
2023-01-10T15:55:38.997Z,101684.98
2023-01-10T15:58:34.684Z,101693.63
2023-01-10T16:01:01.791Z,101695.00
2023-01-10T16:03:36.390Z,101689.67
2023-01-10T16:06:13.492Z,101685.41
2023-01-10T16:08:48.487Z,101680.96
2023-01-10T16:11:51.088Z,101680.11
2023-01-10T16:14:18.239Z,101668.27
2023-01-10T16:16:45.284Z,101669.33
2023-01-10T16:19:14.847Z,101675.17
2023-01-10T16:21:46.656Z,101673.12
2023-01-10T16:24:19.204Z,101674.12
2023-01-10T16:26:47.631Z,101672.11
2023-01-10T16:29:14.553Z,101670.62
2023-01-10T16:31:41.717Z,101674.25
2023-01-10T16:34:08.772Z,101669.67
2023-01-10T16:36:36.495Z,101671.14
2023-01-10T16:39:08.203Z,101672.04
2023-01-10T16:41:53.663Z,101668.11
2023-01-10T16:44:20.698Z,101671.92
2023-01-10T16:46:52.862Z,101675.16
2023-01-10T16:49:20.627Z,101674.33
2023-01-10T16:51:48.181Z,101669.59
2023-01-10T16:54:17.174Z,101677.52
2023-01-10T16:56:44.941Z,101673.70
2023-01-10T16:59:17.428Z,101682.23
2023-01-10T17:01:51.843Z,101680.40
2023-01-10T17:04:23.995Z,101682.83
2023-01-10T17:06:51.196Z,101692.23
2023-01-10T17:09:35.091Z,101698.83
2023-01-10T17:12:11.957Z,101708.91
2023-01-10T17:14:38.911Z,101716.73
2023-01-10T17:17:06.001Z,101726.05
2023-01-10T17:19:33.318Z,101734.19
2023-01-10T17:22:00.292Z,101733.64
2023-01-10T17:24:30.172Z,101734.13
2023-01-10T17:26:57.360Z,101735.49
2023-01-10T17:29:24.577Z,101730.83
2023-01-10T17:31:51.568Z,101729.02
2023-01-10T17:34:24.721Z,101716.65
2023-01-10T17:36:51.769Z,101715.33
2023-01-10T17:39:18.810Z,101711.23
2023-01-10T17:41:45.894Z,101711.94
2023-01-10T17:44:18.021Z,101707.77
2023-01-10T17:46:45.271Z,101706.70
2023-01-10T17:49:13.422Z,101706.73
2023-01-10T17:51:40.704Z,101708.25
2023-01-10T18:01:55.089Z,101735.27
2023-01-10T18:04:22.378Z,101733.35
2023-01-10T18:06:52.300Z,101730.65
2023-01-10T18:09:24.744Z,101729.46
2023-01-10T18:11:51.795Z,101725.09
2023-01-10T18:14:37.218Z,101719.02
2023-01-10T18:17:06.222Z,101712.83
2023-01-10T18:19:34.742Z,101712.90
2023-01-10T18:22:22.783Z,101711.77
2023-01-10T18:24:53.804Z,101717.76
2023-01-10T18:27:25.082Z,101707.32
2023-01-10T18:29:52.383Z,101703.55
2023-01-10T18:32:20.497Z,101707.53
2023-01-10T18:34:47.752Z,101719.19
2023-01-10T18:37:15.765Z,101724.86
2023-01-10T18:39:47.308Z,101721.13
2023-01-10T18:42:14.495Z,101724.52
2023-01-10T18:44:41.511Z,101727.74
2023-01-10T18:47:13.946Z,101724.36
2023-01-10T18:49:41.606Z,101727.84
2023-01-10T18:52:08.761Z,101704.58
2023-01-10T18:54:35.819Z,101718.06
2023-01-10T18:57:08.280Z,101715.92
2023-01-10T18:59:35.732Z,101717.73
2023-01-10T19:02:02.675Z,101718.95
2023-01-10T19:04:35.058Z,101709.23
2023-01-10T19:07:02.117Z,101717.61
2023-01-10T19:09:29.247Z,101717.14
2023-01-10T19:11:56.401Z,101718.38
2023-01-10T19:14:23.448Z,101724.63
2023-01-10T19:16:50.503Z,101727.70
2023-01-10T19:19:23.738Z,101731.34
2023-01-10T19:21:50.835Z,101732.45
2023-01-10T19:24:21.052Z,101731.20
2023-01-10T19:26:48.407Z,101726.15
2023-01-10T19:29:15.556Z,101722.18
2023-01-10T19:31:43.591Z,101721.06
2023-01-10T19:34:12.213Z,101721.92
2023-01-10T19:36:42.231Z,101726.84
2023-01-10T19:39:09.899Z,101729.06
2023-01-10T19:41:37.250Z,101733.04
2023-01-10T19:44:06.772Z,101738.02
2023-01-10T19:46:37.049Z,101742.07
2023-01-10T19:49:13.123Z,101750.79
2023-01-10T19:51:40.601Z,101756.13
2023-01-10T19:54:08.426Z,101760.67
2023-01-10T19:56:35.661Z,101761.13
2023-01-10T19:59:03.165Z,101766.29
2023-01-10T20:01:31.612Z,101767.17
2023-01-10T20:04:02.127Z,101767.64
2023-01-10T20:06:31.092Z,101768.14
2023-01-10T20:08:58.533Z,101769.79
2023-01-10T20:11:26.490Z,101764.64
2023-01-10T20:13:54.712Z,101765.84
2023-01-10T20:16:22.835Z,101764.38
2023-01-10T20:18:50.608Z,101757.70
2023-01-10T20:21:18.181Z,101746.60
2023-01-10T20:23:50.638Z,101761.20
2023-01-10T20:26:22.605Z,101760.19
2023-01-10T20:28:50.888Z,101762.95
2023-01-10T20:31:22.683Z,101757.92
2023-01-10T20:33:55.129Z,101756.30
2023-01-10T20:36:23.469Z,101756.82
2023-01-10T20:38:50.818Z,101754.13
2023-01-10T20:41:31.043Z,101758.60
2023-01-10T20:43:58.124Z,101765.78
2023-01-10T20:46:27.203Z,101767.21
2023-01-10T20:48:55.519Z,101770.44
2023-01-10T20:51:24.513Z,101776.39
2023-01-10T20:53:56.985Z,101787.91
2023-01-10T20:56:25.870Z,101791.86
2023-01-10T20:58:53.335Z,101798.45
2023-01-10T21:01:33.107Z,101789.17
2023-01-10T21:04:01.272Z,101792.66
2023-01-10T21:06:28.780Z,101791.23
2023-01-10T21:08:56.598Z,101792.79
2023-01-10T21:11:23.623Z,101786.84
2023-01-10T21:13:50.980Z,101785.30
2023-01-10T21:16:20.214Z,101777.80
2023-01-10T21:18:47.880Z,101783.30
2023-01-10T21:21:16.632Z,101781.66
2023-01-10T21:23:43.975Z,101782.27
2023-01-10T21:26:16.550Z,101786.80
2023-01-10T21:28:47.966Z,101774.60
2023-01-10T21:31:16.827Z,101768.55
2023-01-10T21:33:53.562Z,101761.37
2023-01-10T21:36:20.610Z,101767.73
2023-01-10T21:38:48.101Z,101761.81
2023-01-10T21:41:44.626Z,101768.14
2023-01-10T21:44:11.862Z,101772.58
2023-01-10T21:46:39.161Z,101774.20
2023-01-10T21:49:06.363Z,101774.81
2023-01-10T21:51:33.545Z,101776.23
2023-01-10T21:54:05.678Z,101772.05
2023-01-10T21:56:33.037Z,101762.60
2023-01-10T21:59:00.184Z,101767.15
2023-01-10T22:01:32.681Z,101769.96
2023-01-10T22:04:04.958Z,101770.39
2023-01-10T22:06:32.250Z,101772.45
2023-01-10T22:08:59.433Z,101771.79
2023-01-10T22:11:31.702Z,101767.61
2023-01-10T22:13:58.953Z,101768.34
2023-01-10T22:16:26.533Z,101772.01
2023-01-10T22:18:53.668Z,101770.93
2023-01-10T22:21:21.789Z,101766.63
2023-01-10T22:23:49.092Z,101761.21
2023-01-10T22:26:16.333Z,101758.67
2023-01-10T22:28:44.417Z,101759.35
2023-01-10T22:31:11.605Z,101752.48
2023-01-10T22:33:38.814Z,101753.13
2023-01-10T22:36:13.658Z,101753.52
2023-01-10T22:38:41.947Z,101742.89
2023-01-10T22:41:10.195Z,101746.23
2023-01-10T22:43:37.450Z,101743.75
2023-01-10T22:46:05.013Z,101741.39
2023-01-10T22:48:32.363Z,101741.63
2023-01-10T22:51:01.054Z,101739.42
2023-01-10T22:53:28.583Z,101742.23
2023-01-10T22:55:55.620Z,101735.81
2023-01-10T22:58:22.725Z,101730.52
2023-01-10T23:00:50.057Z,101732.94
2023-01-10T23:03:17.115Z,101731.30
2023-01-10T23:05:49.155Z,101729.83
2023-01-10T23:08:16.168Z,101724.30
2023-01-10T23:10:43.870Z,101725.20
2023-01-10T23:13:10.924Z,101725.27
2023-01-10T23:15:38.166Z,101726.50
2023-01-10T23:18:05.210Z,101728.06
2023-01-10T23:20:33.824Z,101726.77
2023-01-10T23:23:00.959Z,101730.98
2023-01-10T23:25:27.927Z,101740.02
2023-01-10T23:27:54.936Z,101740.95
2023-01-10T23:30:22.809Z,101733.75
2023-01-10T23:32:51.396Z,101739.52
2023-01-10T23:35:18.433Z,101743.06
2023-01-10T23:37:45.500Z,101741.02
2023-01-10T23:40:13.165Z,101734.55
2023-01-10T23:42:40.116Z,101734.79
2023-01-10T23:45:13.192Z,101732.38
2023-01-10T23:47:40.120Z,101730.98
2023-01-10T23:50:07.999Z,101730.69
2023-01-10T23:52:35.140Z,101733.27
2023-01-10T23:55:02.106Z,101733.98
2023-01-10T23:57:29.129Z,101733.58
